Terminal Aerodrome Forecast
Issued by NWS

Home | Current Version | Previous Version | Text Only | Print | Product List | Glossary On
Versions: 1 2 3 4 5 6 7 8 9 10 11 12 13 14 15 16 17 18
000
FTUS46 KPDT 301720
TAFALW
TAF
KALW 301720Z 3018/3118 23011KT P6SM -SHRA OVC070
     FM302000 23014G20KT P6SM -SHRA BKN070
     FM302300 23015G23KT P6SM VCSH BKN070
     FM310300 22010KT P6SM SCT080
     FM310600 19008KT P6SM FEW080 SCT200=

USA.gov is the U.S. government's official web portal to all federal, state and local government web resources and services.